Pagrindinis puslapis
METAR-TAF:

METAR-TAF

Oro uostai :

Brindizis, Italija

platuma: 40-39N, ilguma: 017-57E, Aukštis: 15 m

Dabartinis oras

Ataskaita buvo paskelbta 23 minutes, ne 23:20 UTC
Vėjas 12 kt iš Šiaurės Vakarų
Temperatūra 12°C
Drėgmė 100%
Slėgis 1025 hPa
Matomumas 10 km arba daugiau
nėra debesų žemiau 1500 m ir nėra kamuolinių lietaus debesų

METAR: LIBR 072320Z 31012KT CAVOK 12/12 Q1025

Laikas: 01:43 (23:43 UTC)

Prognozė

Ataskaita buvo paskelbta 6 valandos ir 43 minutes, ne 17:00 UTC
Prognozė galioja nuo 07 metu 18 UTC su 08 metu 18 UTC
Vėjas 15 kt iš Šiaurės Rytų
Matomumas 10 km arba daugiau
nėra debesų žemiau 1500 m ir nėra kamuolinių lietaus debesų

TAF: LIBR 071700Z 0718/0818 04015KT CAVOK

Orai ataskaitas ir orų prognozės (METAR, TAF).

turimą stotys yra geltonos ir raudonos taškus žemėlapyje.

Perkelti pele per norėdami pamatyti stoties vardą.

Tada spustelėkite, norėdami matyti oro stebėjimo ir prognozės.

Norėdami pakeisti žemėlapį: spustelėkite ant žalios mygtukų su juodo kryžiaus žemyn,; žalią mygtuką su brūkšneliu, jei norite nutolinti; arba žalių rodyklių gretimoms žemėlapius.


METAR-TAF: